Time;durP1;ratioP1;P1;durP2;ratioP2;P2;SDS_P1;SDS_P2;PMS_P1;PMS_P2;Temp;Humidity;BMP_temperature;BMP_pressure;BME280_temperature;BME280_humidity;BME280_pressure;Samples;Min_cycle;Max_cycle;Signal;HPM_P1;HPM_P2
2021/03/05 00:01:25;;;;;;;25.10;2.38;;;1.60;99.90;;;;;;4714415;30;20049;-79
2021/03/05 00:03:51;;;;;;;24.25;3.10;;;1.60;99.90;;;;;;4710948;30;20529;-80
2021/03/05 00:06:16;;;;;;;23.08;3.55;;;1.60;99.90;;;;;;4695293;30;20180;-80
2021/03/05 00:08:42;;;;;;;21.02;2.90;;;1.60;99.90;;;;;;4710586;30;20049;-79
2021/03/05 00:11:08;;;;;;;31.15;3.03;;;1.60;99.90;;;;;;4706364;30;20045;-79
2021/03/05 00:13:34;;;;;;;23.33;3.20;;;1.70;99.90;;;;;;4719487;30;20051;-79
2021/03/05 00:15:59;;;;;;;22.83;3.10;;;1.70;99.90;;;;;;4711072;30;20041;-79
2021/03/05 00:18:26;;;;;;;24.55;3.10;;;1.80;99.90;;;;;;4696021;30;20814;-79
2021/03/05 00:20:54;;;;;;;22.42;2.60;;;1.80;99.90;;;;;;4712475;30;20088;-81
2021/03/05 00:23:20;;;;;;;21.80;2.85;;;1.90;99.90;;;;;;4712177;30;20144;-78
2021/03/05 00:25:48;;;;;;;25.80;2.75;;;1.90;99.90;;;;;;4711128;30;20192;-78
2021/03/05 00:28:14;;;;;;;13.73;2.38;;;2.00;99.90;;;;;;4708272;30;20049;-79
2021/03/05 00:30:40;;;;;;;18.30;2.58;;;2.00;99.90;;;;;;4716611;30;20041;-79
2021/03/05 00:33:06;;;;;;;19.77;3.30;;;2.00;99.90;;;;;;4715081;30;20187;-78
2021/03/05 00:35:32;;;;;;;16.65;2.97;;;2.00;99.90;;;;;;4716008;30;20131;-79
2021/03/05 00:37:58;;;;;;;20.70;3.22;;;2.10;99.90;;;;;;4713895;30;20497;-80
2021/03/05 00:40:24;;;;;;;17.35;2.90;;;2.10;99.90;;;;;;4724369;30;20538;-79
2021/03/05 00:42:52;;;;;;;10.90;2.45;;;2.10;99.90;;;;;;4708445;30;20387;-79
2021/03/05 00:45:21;;;;;;;13.50;2.92;;;2.20;99.90;;;;;;4693669;30;20057;-79
2021/03/05 00:47:46;;;;;;;19.48;3.15;;;2.10;99.90;;;;;;4707480;30;20049;-79
2021/03/05 00:50:14;;;;;;;24.42;3.13;;;2.00;99.90;;;;;;4711232;30;20049;-79
2021/03/05 00:52:40;;;;;;;17.70;2.83;;;2.10;99.90;;;;;;4710965;30;20051;-79
2021/03/05 00:55:08;;;;;;;22.40;3.50;;;2.00;99.90;;;;;;4713478;30;20049;-79
2021/03/05 00:57:35;;;;;;;15.63;2.97;;;2.00;99.90;;;;;;4722545;30;20083;-80
2021/03/05 01:00:01;;;;;;;19.83;3.38;;;2.00;99.90;;;;;;4715941;30;20045;-79
2021/03/05 01:02:26;;;;;;;12.55;3.33;;;1.90;99.90;;;;;;4692113;30;20041;-79
2021/03/05 01:04:52;;;;;;;18.73;3.28;;;1.90;99.90;;;;;;4717236;30;20068;-81
2021/03/05 01:07:18;;;;;;;16.15;3.03;;;1.90;99.90;;;;;;4705099;30;20063;-80
2021/03/05 01:09:44;;;;;;;10.38;3.13;;;1.90;99.90;;;;;;4710694;30;20048;-80
2021/03/05 01:12:10;;;;;;;9.55;3.03;;;1.80;99.90;;;;;;4716826;30;20041;-79
2021/03/05 01:14:36;;;;;;;16.35;3.08;;;1.80;99.90;;;;;;4709891;30;20127;-80
2021/03/05 01:17:04;;;;;;;10.80;2.42;;;1.80;99.90;;;;;;4709479;30;20053;-80
2021/03/05 01:19:31;;;;;;;9.98;2.72;;;1.80;99.90;;;;;;4713756;30;20048;-80
2021/03/05 01:21:56;;;;;;;11.60;2.78;;;1.80;99.90;;;;;;4714575;30;20091;-81
2021/03/05 01:24:23;;;;;;;11.63;2.53;;;1.80;99.90;;;;;;4708411;30;20542;-80
2021/03/05 01:26:50;;;;;;;12.13;2.90;;;1.80;99.90;;;;;;4714317;30;20049;-80
2021/03/05 01:29:17;;;;;;;16.20;2.45;;;1.80;99.90;;;;;;4709159;30;20482;-80
2021/03/05 01:31:42;;;;;;;16.83;2.92;;;1.80;99.90;;;;;;4708727;30;20768;-80
2021/03/05 01:34:08;;;;;;;10.38;2.13;;;1.80;99.90;;;;;;4719147;30;20060;-80
2021/03/05 01:36:34;;;;;;;12.30;2.78;;;1.80;99.90;;;;;;4715023;30;20053;-81
2021/03/05 01:39:00;;;;;;;12.27;2.88;;;1.80;99.90;;;;;;4708100;30;20041;-80
2021/03/05 01:41:26;;;;;;;5.95;1.90;;;1.70;99.90;;;;;;4708240;30;20045;-79
2021/03/05 01:43:52;;;;;;;10.68;2.20;;;1.70;99.90;;;;;;4712830;30;20060;-80
2021/03/05 01:46:20;;;;;;;10.70;2.63;;;1.80;99.90;;;;;;4714081;30;20083;-81
2021/03/05 01:48:46;;;;;;;6.50;1.92;;;2.10;99.90;;;;;;4693335;30;20053;-80
2021/03/05 01:51:23;;;;;;;8.32;2.05;;;1.70;99.90;;;;;;4715225;30;20121;-81
2021/03/05 01:53:50;;;;;;;16.17;2.20;;;1.70;99.90;;;;;;4709138;30;20049;-81
2021/03/05 01:56:34;;;;;;;9.27;2.20;;;1.90;99.90;;;;;;4709315;30;20104;-81
2021/03/05 01:59:02;;;;;;;5.70;1.98;;;2.00;99.90;;;;;;4696076;30;20064;-81
2021/03/05 02:01:29;;;;;;;9.15;2.08;;;1.70;99.90;;;;;;4713656;30;20539;-81
2021/03/05 02:03:55;;;;;;;8.35;2.20;;;1.70;99.90;;;;;;4695817;30;20140;-81
2021/03/05 02:06:22;;;;;;;7.90;1.70;;;1.70;99.90;;;;;;4715628;30;20049;-80
2021/03/05 02:08:48;;;;;;;5.30;1.50;;;1.70;99.90;;;;;;4709723;30;20135;-81
2021/03/05 02:11:17;;;;;;;5.30;1.70;;;2.10;99.90;;;;;;4710604;30;20045;-81
2021/03/05 02:13:43;;;;;;;3.83;1.60;;;1.80;99.90;;;;;;4709545;30;20448;-81
2021/03/05 02:16:33;;;;;;;7.82;1.77;;;1.80;99.90;;;;;;4698546;30;20061;-82
2021/03/05 02:19:12;;;;;;;7.40;1.48;;;1.90;99.90;;;;;;4711537;30;20127;-81
2021/03/05 02:21:38;;;;;;;6.88;1.42;;;2.10;99.90;;;;;;4723164;30;20715;-82
2021/03/05 02:24:24;;;;;;;5.95;1.58;;;2.40;99.90;;;;;;4712371;30;20064;-82
2021/03/05 02:27:34;;;;;;;11.85;1.80;;;1.90;99.90;;;;;;4728252;30;20068;-82
2021/03/05 02:30:19;;;;;;;11.48;1.55;;;2.00;99.90;;;;;;4678751;30;20060;-81
2021/03/05 02:32:58;;;;;;;9.07;1.95;;;2.00;99.90;;;;;;4685339;30;20142;-81
2021/03/05 02:35:30;;;;;;;9.00;1.63;;;2.00;99.90;;;;;;4686026;30;20088;-82
2021/03/05 02:37:59;;;;;;;15.35;1.90;;;2.00;99.90;;;;;;4679159;30;20080;-82
2021/03/05 02:40:28;;;;;;;8.60;1.55;;;2.20;99.90;;;;;;4691071;30;20265;-81
2021/03/05 02:43:01;;;;;;;15.50;1.95;;;1.90;99.90;;;;;;4697583;30;20045;-81
2021/03/05 02:45:30;;;;;;;8.52;1.70;;;2.00;99.90;;;;;;4705361;30;20432;-81
2021/03/05 02:48:19;;;;;;;12.90;2.10;;;1.90;99.90;;;;;;4676760;30;20106;-80
2021/03/05 02:50:50;;;;;;;8.20;1.60;;;1.90;99.90;;;;;;4708763;30;20072;-79
2021/03/05 02:53:18;;;;;;;10.55;1.88;;;2.10;99.90;;;;;;4693129;30;20270;-80
2021/03/05 02:55:48;;;;;;;14.20;1.80;;;1.90;99.90;;;;;;4695802;30;20072;-80
2021/03/05 02:58:17;;;;;;;15.35;1.73;;;1.70;99.90;;;;;;4675561;30;20534;-80
2021/03/05 03:00:44;;;;;;;12.43;1.63;;;1.70;99.90;;;;;;4692674;30;20088;-81
2021/03/05 03:03:12;;;;;;;11.30;1.60;;;1.70;99.90;;;;;;4691871;30;20049;-80
2021/03/05 03:05:39;;;;;;;15.77;1.80;;;1.70;99.90;;;;;;4697367;30;20065;-80
2021/03/05 03:08:09;;;;;;;16.48;1.77;;;1.60;99.90;;;;;;4708621;30;20050;-79
2021/03/05 03:10:35;;;;;;;11.88;1.50;;;1.50;99.90;;;;;;4707687;30;20473;-79
2021/03/05 03:13:02;;;;;;;15.35;1.35;;;1.80;99.90;;;;;;4706966;30;20041;-80
2021/03/05 03:15:30;;;;;;;12.48;1.75;;;1.40;99.90;;;;;;4697041;30;20137;-80
2021/03/05 03:17:58;;;;;;;10.73;1.80;;;1.30;99.90;;;;;;4721164;30;20048;-81
2021/03/05 03:20:26;;;;;;;9.93;1.27;;;1.50;99.90;;;;;;4709361;30;20049;-80
2021/03/05 03:22:52;;;;;;;12.73;1.50;;;1.20;99.90;;;;;;4693020;30;20140;-81
2021/03/05 03:25:18;;;;;;;9.80;1.48;;;1.10;99.90;;;;;;4693124;30;20060;-80
2021/03/05 03:27:45;;;;;;;8.20;1.15;;;1.10;99.90;;;;;;4715635;30;21900;-80
2021/03/05 03:30:14;;;;;;;4.97;1.02;;;1.00;99.90;;;;;;4706401;30;20543;-80
2021/03/05 03:32:44;;;;;;;8.73;1.10;;;1.00;99.90;;;;;;4716271;30;20371;-81
2021/03/05 03:35:12;;;;;;;10.65;1.33;;;0.90;99.90;;;;;;4705537;30;20120;-80
2021/03/05 03:37:39;;;;;;;8.13;1.27;;;0.80;99.90;;;;;;4712094;30;20064;-80
2021/03/05 03:40:08;;;;;;;9.23;1.48;;;0.80;99.90;;;;;;4705871;30;20049;-79
2021/03/05 03:42:34;;;;;;;11.68;1.35;;;0.70;99.90;;;;;;4705467;30;20041;-80
2021/03/05 03:45:05;;;;;;;9.45;1.00;;;0.80;99.90;;;;;;4698614;30;20053;-79
2021/03/05 03:47:31;;;;;;;10.98;1.35;;;0.70;99.90;;;;;;4708663;30;20053;-80
2021/03/05 03:50:00;;;;;;;11.75;1.30;;;0.60;99.90;;;;;;4715245;30;20106;-81
2021/03/05 03:52:36;;;;;;;13.13;1.42;;;0.60;99.90;;;;;;4726894;30;20566;-80
2021/03/05 03:55:03;;;;;;;12.20;1.40;;;0.50;99.90;;;;;;4707678;30;20061;-80
2021/03/05 03:57:33;;;;;;;8.35;1.15;;;0.50;99.90;;;;;;4706573;30;20682;-80
2021/03/05 04:00:00;;;;;;;6.22;1.00;;;0.50;99.90;;;;;;4704874;30;20041;-79
2021/03/05 04:02:28;;;;;;;7.75;1.40;;;0.40;99.90;;;;;;4708292;30;20045;-80
2021/03/05 04:04:57;;;;;;;10.93;1.35;;;0.20;99.90;;;;;;4693852;30;20088;-81
2021/03/05 04:07:26;;;;;;;7.13;1.00;;;0.70;99.90;;;;;;4686526;30;20523;-80
2021/03/05 04:09:55;;;;;;;6.65;1.08;;;0.20;99.90;;;;;;4708883;30;20107;-81
2021/03/05 04:12:27;;;;;;;9.85;1.20;;;0.10;99.90;;;;;;4712851;30;20107;-80
2021/03/05 04:14:54;;;;;;;8.63;1.20;;;0.20;99.90;;;;;;4693639;30;20046;-81
2021/03/05 04:17:20;;;;;;;9.23;1.10;;;0.10;99.90;;;;;;4714828;30;20045;-80
2021/03/05 04:19:47;;;;;;;9.57;1.45;;;0.10;99.90;;;;;;4708480;30;20065;-80
2021/03/05 04:22:15;;;;;;;11.48;1.58;;;0.10;99.90;;;;;;4693722;30;20111;-80
2021/03/05 04:24:41;;;;;;;8.95;0.90;;;0.10;99.90;;;;;;4712670;30;20056;-80
2021/03/05 04:27:11;;;;;;;12.13;1.90;;;0.60;99.90;;;;;;4726094;30;20041;-79
2021/03/05 04:29:37;;;;;;;7.72;1.08;;;0.20;99.90;;;;;;4696685;30;20140;-80
2021/03/05 04:32:03;;;;;;;7.22;0.95;;;0.20;99.90;;;;;;4718227;30;20051;-81
2021/03/05 04:34:29;;;;;;;10.63;1.13;;;0.20;99.90;;;;;;4716199;30;20049;-79
2021/03/05 04:36:56;;;;;;;13.82;1.42;;;0.20;99.90;;;;;;4709502;30;20045;-80
2021/03/05 04:39:22;;;;;;;9.20;1.33;;;0.10;99.90;;;;;;4713189;30;20041;-80
2021/03/05 04:41:48;;;;;;;8.40;0.90;;;0.10;99.90;;;;;;4713211;30;20075;-80
2021/03/05 04:44:14;;;;;;;12.73;1.27;;;0.30;99.90;;;;;;4689743;30;20687;-80
2021/03/05 04:46:39;;;;;;;11.88;1.52;;;0.00;99.90;;;;;;4717675;30;20151;-80
2021/03/05 04:49:05;;;;;;;16.27;1.55;;;0.00;99.90;;;;;;4709610;30;20478;-79
2021/03/05 04:51:31;;;;;;;5.85;1.17;;;-0.10;99.90;;;;;;4701693;30;20182;-80
2021/03/05 04:53:58;;;;;;;9.15;1.15;;;-0.10;99.90;;;;;;4714612;30;20235;-81
2021/03/05 05:00:06;;;;;;;11.05;1.60;;;-0.20;99.90;;;;;;4715059;30;20039;-79
2021/03/05 05:02:32;;;;;;;9.88;1.20;;;-0.30;99.90;;;;;;4715935;30;20053;-80
2021/03/05 05:04:57;;;;;;;13.13;1.05;;;-0.40;99.90;;;;;;4710629;30;20096;-80
2021/03/05 05:07:23;;;;;;;5.28;1.15;;;-0.30;99.90;;;;;;4716661;30;20048;-80
2021/03/05 05:09:49;;;;;;;11.30;0.82;;;-0.40;99.90;;;;;;4717392;30;20053;-81
2021/03/05 05:12:15;;;;;;;9.15;1.27;;;-0.30;99.90;;;;;;4712507;30;20516;-80
2021/03/05 05:14:41;;;;;;;9.82;1.10;;;-0.40;99.90;;;;;;4708543;30;20063;-80
2021/03/05 05:17:06;;;;;;;11.18;1.50;;;-0.40;99.90;;;;;;4714823;30;20148;-79
2021/03/05 05:19:32;;;;;;;10.35;1.00;;;-0.40;99.90;;;;;;4705757;30;20092;-79
2021/03/05 05:21:58;;;;;;;10.20;1.25;;;-0.40;99.90;;;;;;4717459;30;20053;-79
2021/03/05 05:24:24;;;;;;;12.73;1.27;;;-0.40;99.90;;;;;;4708922;30;20466;-78
2021/03/05 05:26:50;;;;;;;6.65;0.90;;;-0.40;99.90;;;;;;4705999;30;20104;-81
2021/03/05 05:29:15;;;;;;;6.90;0.98;;;-0.40;99.90;;;;;;4707274;30;20081;-78
2021/03/05 05:31:42;;;;;;;5.07;0.93;;;-0.40;99.90;;;;;;4709518;30;20060;-80
2021/03/05 05:34:07;;;;;;;11.30;1.17;;;-0.50;99.90;;;;;;4710836;30;20041;-80
2021/03/05 05:36:33;;;;;;;5.25;1.05;;;-0.50;99.90;;;;;;4707509;30;20444;-78
2021/03/05 05:38:59;;;;;;;8.55;1.00;;;-0.50;99.90;;;;;;4722980;30;20116;-79
2021/03/05 05:41:25;;;;;;;8.13;1.15;;;-0.50;99.90;;;;;;4718127;30;20052;-78
2021/03/05 05:43:51;;;;;;;7.65;1.30;;;-0.50;99.90;;;;;;4719314;30;20122;-80
2021/03/05 05:46:20;;;;;;;5.90;1.20;;;-0.50;99.90;;;;;;4726446;30;20049;-79
2021/03/05 05:48:47;;;;;;;9.55;0.90;;;-0.60;99.90;;;;;;4718868;30;20044;-79
2021/03/05 05:51:20;;;;;;;8.95;1.02;;;-0.70;99.90;;;;;;4711341;30;20065;-79
2021/03/05 05:53:46;;;;;;;5.68;1.00;;;-0.80;99.90;;;;;;4713801;30;20113;-80
2021/03/05 05:56:16;;;;;;;7.25;1.38;;;-0.90;99.90;;;;;;4712176;30;20049;-78
2021/03/05 05:58:43;;;;;;;9.93;1.00;;;-1.00;99.90;;;;;;4732795;30;20057;-78
2021/03/05 06:01:10;;;;;;;13.18;1.02;;;-1.10;99.90;;;;;;4726956;30;20118;-78
2021/03/05 06:03:39;;;;;;;4.68;1.05;;;-1.10;99.90;;;;;;4709573;30;20065;-78
2021/03/05 06:06:10;;;;;;;6.80;1.00;;;-1.10;99.90;;;;;;4720092;30;20064;-78
2021/03/05 06:08:37;;;;;;;6.20;1.20;;;-1.20;99.90;;;;;;4718897;30;20524;-78
2021/03/05 06:11:03;;;;;;;7.30;1.20;;;-1.20;99.90;;;;;;4711423;30;20057;-78
2021/03/05 06:13:30;;;;;;;8.93;1.67;;;-1.20;99.90;;;;;;4708172;30;20040;-78
2021/03/05 06:16:17;;;;;;;8.25;1.30;;;-1.30;99.90;;;;;;4721395;30;20487;-80
2021/03/05 06:18:44;;;;;;;5.68;1.08;;;-1.30;99.90;;;;;;4714335;30;20096;-77
2021/03/05 06:21:10;;;;;;;7.50;1.70;;;-1.30;99.90;;;;;;4719073;30;20045;-76
2021/03/05 06:23:57;;;;;;;4.90;1.08;;;-1.30;99.90;;;;;;4713074;30;20053;-76
2021/03/05 06:26:24;;;;;;;7.47;0.98;;;-1.40;99.90;;;;;;4699129;30;20187;-77
2021/03/05 06:29:03;;;;;;;7.95;1.38;;;-0.60;99.90;;;;;;4717195;30;20937;-76
2021/03/05 06:31:30;;;;;;;10.05;1.20;;;-1.00;99.90;;;;;;4715857;30;20053;-77
2021/03/05 06:33:58;;;;;;;5.43;1.20;;;-1.10;99.90;;;;;;4710502;30;20060;-77
2021/03/05 06:36:24;;;;;;;10.57;1.52;;;-1.20;99.90;;;;;;4696627;30;20065;-77
2021/03/05 06:38:52;;;;;;;9.05;1.38;;;-1.20;99.90;;;;;;4712462;30;20123;-76
2021/03/05 06:41:21;;;;;;;3.83;1.33;;;-1.30;99.90;;;;;;4709934;30;20064;-77
2021/03/05 06:43:55;;;;;;;7.15;1.38;;;-1.40;99.90;;;;;;4717237;30;20060;-76
2021/03/05 06:46:31;;;;;;;8.70;1.30;;;-1.40;99.90;;;;;;4712355;30;20556;-76
2021/03/05 06:49:06;;;;;;;8.77;1.30;;;-1.40;99.90;;;;;;4708703;30;20055;-76
2021/03/05 06:51:32;;;;;;;9.68;1.80;;;-1.40;99.90;;;;;;4716987;30;20127;-77
2021/03/05 06:54:08;;;;;;;11.65;1.98;;;-1.40;99.90;;;;;;4710595;30;20075;-76
2021/03/05 06:56:37;;;;;;;10.93;1.83;;;-1.40;99.90;;;;;;4704395;30;20187;-75
2021/03/05 06:59:02;;;;;;;11.57;2.10;;;-1.40;99.90;;;;;;4717989;30;20056;-75
2021/03/05 07:01:29;;;;;;;9.02;2.03;;;-1.30;99.90;;;;;;4707800;30;20057;-75
2021/03/05 07:04:10;;;;;;;7.93;1.60;;;-1.30;99.90;;;;;;4698701;30;20084;-78
2021/03/05 07:06:35;;;;;;;9.30;2.00;;;-1.20;99.90;;;;;;4695775;30;20041;-76
2021/03/05 07:09:03;;;;;;;6.93;1.67;;;-1.20;99.90;;;;;;4697360;30;20064;-77
2021/03/05 07:11:35;;;;;;;10.50;1.48;;;-1.10;99.90;;;;;;4712084;30;20102;-76
2021/03/05 07:14:02;;;;;;;7.10;1.48;;;-1.00;99.90;;;;;;4720536;30;20513;-76
2021/03/05 07:16:45;;;;;;;7.32;1.63;;;-1.00;99.90;;;;;;4713692;30;20128;-76
2021/03/05 07:19:13;;;;;;;6.45;1.65;;;-0.80;99.90;;;;;;4719458;30;20048;-77
2021/03/05 07:21:41;;;;;;;9.32;2.08;;;-0.70;99.90;;;;;;4709487;30;20041;-76
2021/03/05 07:24:09;;;;;;;7.80;1.60;;;-0.50;99.90;;;;;;4704500;30;20053;-76
2021/03/05 07:26:43;;;;;;;12.02;1.45;;;-0.40;99.90;;;;;;4730331;30;20053;-77
2021/03/05 07:29:17;;;;;;;5.10;1.30;;;-0.30;99.90;;;;;;4737706;30;20419;-77
2021/03/05 07:31:44;;;;;;;9.18;1.40;;;-0.30;99.90;;;;;;4718492;30;20159;-77
2021/03/05 07:34:18;;;;;;;7.82;1.15;;;-0.20;99.90;;;;;;4728759;30;20416;-78
2021/03/05 07:36:48;;;;;;;5.88;1.10;;;-0.10;99.90;;;;;;4707648;30;20612;-78
2021/03/05 07:39:32;;;;;;;10.13;0.80;;;0.00;99.90;;;;;;4726151;30;20071;-78
2021/03/05 07:41:58;;;;;;;7.70;1.00;;;-0.10;99.90;;;;;;4720858;30;20621;-80
2021/03/05 07:44:25;;;;;;;7.45;1.38;;;0.00;99.90;;;;;;4708261;30;20057;-78
2021/03/05 07:46:52;;;;;;;7.95;1.38;;;0.00;99.90;;;;;;4726602;30;20118;-80
2021/03/05 07:49:27;;;;;;;6.78;1.17;;;0.10;99.90;;;;;;4696013;30;20060;-77
2021/03/05 07:51:55;;;;;;;9.32;1.02;;;0.30;99.90;;;;;;4726477;30;20051;-78
2021/03/05 07:54:48;;;;;;;6.63;1.20;;;0.40;99.90;;;;;;4725658;30;20041;-77
2021/03/05 07:57:14;;;;;;;6.10;1.05;;;0.50;99.90;;;;;;4724366;30;20063;-77
2021/03/05 07:59:42;;;;;;;6.07;1.50;;;0.60;99.90;;;;;;4733168;30;20044;-78
2021/03/05 08:02:08;;;;;;;7.68;1.50;;;0.70;99.90;;;;;;4711389;30;20129;-80
2021/03/05 08:04:55;;;;;;;8.10;1.38;;;0.70;99.90;;;;;;4725265;30;20048;-78
2021/03/05 08:07:25;;;;;;;7.47;1.33;;;0.80;99.90;;;;;;4728284;30;20087;-79
2021/03/05 08:09:51;;;;;;;8.25;1.20;;;0.80;99.90;;;;;;4732018;30;20079;-80
2021/03/05 08:15:05;;;;;;;5.35;1.20;;;1.10;99.90;;;;;;4739638;30;20138;-80
2021/03/05 08:17:32;;;;;;;4.68;1.10;;;1.10;99.90;;;;;;4737746;30;20051;-80
2021/03/05 08:19:58;;;;;;;12.43;1.45;;;1.10;99.90;;;;;;4718682;30;20401;-79
2021/03/05 08:22:26;;;;;;;8.05;1.20;;;1.20;99.90;;;;;;4716928;30;20148;-77
2021/03/05 08:24:52;;;;;;;4.63;1.40;;;1.10;99.90;;;;;;4736237;30;20076;-80
2021/03/05 08:27:59;;;;;;;4.28;1.10;;;1.30;99.90;;;;;;4718149;30;20502;-78
2021/03/05 08:30:34;;;;;;;4.90;1.00;;;1.30;99.90;;;;;;4728838;30;20048;-79
2021/03/05 08:33:01;;;;;;;8.30;1.15;;;1.50;99.90;;;;;;4720861;30;20623;-80
2021/03/05 08:35:30;;;;;;;3.45;1.20;;;1.60;99.90;;;;;;4697062;30;20131;-79
2021/03/05 08:38:12;;;;;;;9.57;1.13;;;1.70;99.90;;;;;;4721111;30;20068;-80
2021/03/05 08:40:45;;;;;;;3.30;0.77;;;1.90;99.90;;;;;;4732435;30;20040;-81
2021/03/05 08:43:12;;;;;;;7.95;1.05;;;2.00;99.90;;;;;;4710230;30;20619;-79
2021/03/05 08:46:05;;;;;;;6.22;1.63;;;2.10;99.90;;;;;;4719481;30;20048;-79
2021/03/05 08:48:41;;;;;;;6.70;0.70;;;2.10;99.90;;;;;;4710446;30;20146;-79
2021/03/05 08:51:19;;;;;;;4.10;0.90;;;2.20;99.90;;;;;;4726712;30;20847;-79
2021/03/05 08:53:55;;;;;;;9.30;1.00;;;2.30;99.90;;;;;;4727242;30;20125;-79
2021/03/05 08:56:27;;;;;;;4.57;1.05;;;2.20;99.90;;;;;;4727167;30;20087;-79
2021/03/05 08:59:01;;;;;;;5.38;0.85;;;2.30;99.90;;;;;;4705707;30;20065;-80
2021/03/05 09:01:40;;;;;;;7.05;0.80;;;2.40;99.90;;;;;;4701031;30;20060;-79
2021/03/05 09:04:13;;;;;;;4.50;0.90;;;2.50;99.90;;;;;;4712244;30;20493;-79
2021/03/05 09:06:53;;;;;;;4.72;1.00;;;2.60;99.90;;;;;;4729592;30;20038;-79
2021/03/05 09:09:33;;;;;;;7.30;1.10;;;2.70;99.90;;;;;;4727599;30;20121;-79
2021/03/05 09:12:13;;;;;;;5.35;0.70;;;2.80;98.30;;;;;;4717617;30;20143;-79
2021/03/05 09:14:43;;;;;;;7.28;0.88;;;2.80;98.20;;;;;;4707596;30;20063;-79
2021/03/05 09:17:10;;;;;;;5.10;0.80;;;2.90;97.70;;;;;;4722569;30;20053;-79
2021/03/05 09:19:46;;;;;;;3.88;0.85;;;2.90;97.90;;;;;;4717784;30;20049;-79
2021/03/05 09:22:14;;;;;;;2.47;0.50;;;3.00;96.60;;;;;;4704888;30;20048;-79
2021/03/05 09:24:59;;;;;;;4.15;0.95;;;3.00;95.30;;;;;;4726773;30;20059;-79
2021/03/05 09:27:31;;;;;;;;;;;3.00;97.40;;;;;;4720099;30;20049;-79
2021/03/05 09:29:59;;;;;;;10.10;1.30;;;3.10;97.70;;;;;;4743429;30;20012;-80
2021/03/05 09:32:25;;;;;;;3.70;0.70;;;3.10;98.50;;;;;;4726769;30;20053;-79
2021/03/05 09:34:57;;;;;;;3.95;0.70;;;3.20;97.80;;;;;;4712679;30;20565;-80
2021/03/05 09:37:26;;;;;;;4.80;0.70;;;3.30;97.00;;;;;;4713038;30;20060;-78
2021/03/05 09:39:54;;;;;;;6.55;0.90;;;3.40;96.30;;;;;;4728336;30;20037;-80
2021/03/05 09:42:45;;;;;;;1.92;0.60;;;3.60;95.20;;;;;;4713745;30;20565;-79
2021/03/05 09:45:13;;;;;;;11.50;0.90;;;3.50;93.80;;;;;;4726537;30;20143;-79
2021/03/05 09:47:46;;;;;;;2.83;0.77;;;3.60;93.20;;;;;;4713059;30;20065;-79
2021/03/05 09:50:22;;;;;;;2.45;0.80;;;3.60;92.90;;;;;;4711771;30;20521;-77
2021/03/05 09:52:48;;;;;;;7.15;0.90;;;3.80;94.60;;;;;;4728775;30;20045;-82
2021/03/05 09:55:31;;;;;;;6.43;0.70;;;3.80;94.40;;;;;;4728644;30;20048;-82
2021/03/05 09:58:11;;;;;;;2.92;0.65;;;3.80;95.20;;;;;;4714269;30;20102;-81
2021/03/05 10:00:37;;;;;;;1.48;0.57;;;4.30;93.40;;;;;;4741426;30;20135;-81
2021/03/05 10:03:13;;;;;;;3.17;0.73;;;4.40;94.40;;;;;;4745647;30;20118;-81
2021/03/05 10:05:41;;;;;;;5.30;0.70;;;4.30;93.40;;;;;;4705767;30;20061;-80
2021/03/05 10:08:27;;;;;;;6.97;0.90;;;4.30;92.60;;;;;;4696098;30;20064;-79
2021/03/05 10:11:07;;;;;;;7.13;0.98;;;4.60;93.50;;;;;;4725599;30;20056;-80
2021/03/05 10:13:55;;;;;;;7.25;1.33;;;4.60;93.70;;;;;;4707593;30;20079;-81
2021/03/05 10:16:33;;;;;;;4.57;0.88;;;4.70;93.00;;;;;;4730173;30;20786;-82
2021/03/05 10:19:02;;;;;;;5.30;1.00;;;4.70;93.40;;;;;;4729481;30;20102;-84
2021/03/05 10:21:28;;;;;;;3.75;0.82;;;4.80;94.20;;;;;;4729118;30;22002;-82
2021/03/05 10:23:55;;;;;;;8.55;0.80;;;4.90;93.60;;;;;;4698558;30;20058;-82
2021/03/05 10:26:26;;;;;;;3.42;0.60;;;5.20;95.10;;;;;;4713228;30;20061;-83
2021/03/05 10:29:07;;;;;;;5.30;0.98;;;4.90;92.00;;;;;;4713457;30;20044;-83
2021/03/05 10:31:50;;;;;;;2.40;1.00;;;4.70;91.80;;;;;;4714886;30;20084;-81
2021/03/05 10:34:33;;;;;;;7.97;1.38;;;4.60;92.90;;;;;;4717119;30;20060;-79
2021/03/05 10:37:01;;;;;;;5.10;1.40;;;4.50;93.20;;;;;;4717808;30;20072;-80
2021/03/05 10:39:32;;;;;;;10.63;1.58;;;4.50;93.40;;;;;;4719078;30;20559;-81
2021/03/05 10:42:00;;;;;;;4.63;0.80;;;4.60;94.40;;;;;;4703006;30;20052;-82
2021/03/05 10:44:28;;;;;;;3.97;0.65;;;4.70;93.20;;;;;;4716106;30;20044;-82
2021/03/05 10:47:02;;;;;;;4.53;0.77;;;5.10;92.20;;;;;;4716369;30;20059;-81
2021/03/05 10:49:29;;;;;;;5.82;1.00;;;5.40;92.70;;;;;;4726869;30;20415;-81
2021/03/05 10:51:56;;;;;;;7.57;1.10;;;5.30;90.70;;;;;;4738428;30;20143;-81
2021/03/05 10:54:22;;;;;;;4.65;1.23;;;5.40;90.20;;;;;;4736698;30;20032;-80
2021/03/05 10:56:49;;;;;;;4.10;0.80;;;5.40;91.10;;;;;;4715669;30;20063;-80
2021/03/05 10:59:17;;;;;;;8.35;0.75;;;5.50;86.40;;;;;;4715329;30;20060;-80
2021/03/05 11:01:44;;;;;;;6.03;0.85;;;5.70;91.00;;;;;;4716090;30;20506;-79
2021/03/05 11:04:16;;;;;;;6.47;1.10;;;6.00;89.90;;;;;;4733410;30;20166;-83
2021/03/05 11:06:43;;;;;;;9.10;1.15;;;6.00;89.40;;;;;;4713403;30;20064;-78
2021/03/05 11:09:11;;;;;;;4.57;1.05;;;5.90;89.70;;;;;;4732480;30;20045;-77
2021/03/05 11:11:37;;;;;;;8.82;1.20;;;6.00;83.00;;;;;;4735783;30;20064;-78
2021/03/05 11:14:02;;;;;;;6.78;1.05;;;6.00;82.70;;;;;;4717945;30;20216;-79
2021/03/05 11:16:31;;;;;;;9.63;1.15;;;5.90;83.20;;;;;;4731579;30;20815;-81
2021/03/05 11:18:59;;;;;;;5.40;1.10;;;6.40;86.10;;;;;;4732311;30;20226;-85
2021/03/05 11:21:25;;;;;;;9.07;0.95;;;6.50;85.00;;;;;;4737574;30;20048;-83
2021/03/05 11:23:54;;;;;;;4.80;0.90;;;6.70;78.50;;;;;;4737219;30;20063;-80
2021/03/05 11:26:22;;;;;;;5.00;1.10;;;6.60;78.40;;;;;;4730004;30;20097;-81
2021/03/05 11:28:50;;;;;;;5.22;0.80;;;6.60;82.70;;;;;;4714919;30;20512;-83
2021/03/05 11:31:16;;;;;;;4.85;0.95;;;6.50;77.90;;;;;;4715482;30;20068;-80
2021/03/05 11:33:44;;;;;;;4.72;0.75;;;6.20;80.90;;;;;;4736653;30;20122;-78
2021/03/05 11:36:14;;;;;;;4.68;1.00;;;6.20;81.10;;;;;;4712882;30;20060;-78
2021/03/05 11:38:42;;;;;;;4.25;0.90;;;6.30;78.80;;;;;;4713721;30;20037;-77
2021/03/05 11:41:09;;;;;;;3.53;0.90;;;6.60;80.40;;;;;;4714995;30;20069;-77
2021/03/05 11:43:39;;;;;;;4.28;1.15;;;6.20;82.50;;;;;;4736649;30;20581;-78
2021/03/05 11:46:05;;;;;;;7.28;1.00;;;6.60;84.60;;;;;;4728254;30;20094;-76
2021/03/05 11:48:31;;;;;;;7.75;1.08;;;6.70;79.70;;;;;;4730875;30;20127;-77
2021/03/05 11:50:57;;;;;;;4.15;0.90;;;6.40;80.40;;;;;;4736140;30;20065;-77
2021/03/05 11:53:22;;;;;;;5.78;1.10;;;6.10;79.70;;;;;;4714201;30;20072;-80
2021/03/05 11:55:48;;;;;;;5.53;1.00;;;5.90;84.00;;;;;;4721008;30;20048;-78
2021/03/05 11:58:14;;;;;;;5.90;1.17;;;5.80;87.70;;;;;;4715880;30;20067;-80
2021/03/05 12:00:40;;;;;;;5.93;1.25;;;5.70;87.40;;;;;;4714773;30;20498;-78
2021/03/05 12:03:06;;;;;;;3.55;0.80;;;5.70;85.90;;;;;;4714979;30;20063;-78
2021/03/05 12:05:31;;;;;;;8.45;1.17;;;6.00;87.80;;;;;;4734204;30;20072;-76
2021/03/05 12:07:57;;;;;;;8.50;1.10;;;6.40;86.70;;;;;;4736288;30;20080;-80
2021/03/05 12:10:23;;;;;;;10.48;0.80;;;6.50;81.60;;;;;;4716101;30;20052;-78
2021/03/05 12:12:49;;;;;;;9.52;1.10;;;6.60;83.30;;;;;;4713276;30;20056;-81
2021/03/05 12:15:17;;;;;;;7.68;1.42;;;6.40;84.90;;;;;;4730610;30;20124;-81
2021/03/05 12:17:44;;;;;;;7.10;1.13;;;6.40;85.10;;;;;;4734799;30;20098;-79
2021/03/05 12:20:10;;;;;;;7.00;0.95;;;6.10;86.30;;;;;;4733402;30;20516;-78
2021/03/05 12:22:36;;;;;;;5.65;1.13;;;6.10;86.80;;;;;;4715258;30;20071;-78
2021/03/05 12:25:22;;;;;;;6.13;1.10;;;6.20;85.70;;;;;;4702716;30;20056;-78
2021/03/05 12:28:07;;;;;;;8.07;1.05;;;6.40;82.80;;;;;;4719424;30;20057;-79
2021/03/05 12:30:53;;;;;;;4.30;0.98;;;6.40;82.20;;;;;;4717623;30;20067;-79
2021/03/05 12:33:39;;;;;;;10.95;1.45;;;6.80;86.00;;;;;;4718323;30;20060;-79
2021/03/05 12:36:24;;;;;;;4.38;0.98;;;7.00;79.40;;;;;;4719005;30;20151;-79
2021/03/05 12:39:10;;;;;;;4.65;0.98;;;6.80;76.70;;;;;;4706347;30;20053;-78
2021/03/05 12:41:51;;;;;;;7.32;1.20;;;6.50;76.70;;;;;;4721379;30;20131;-79
2021/03/05 12:44:17;;;;;;;4.28;1.08;;;6.30;79.50;;;;;;4715637;30;20533;-79
2021/03/05 12:46:42;;;;;;;9.43;1.25;;;6.10;82.50;;;;;;4735092;30;20114;-79
2021/03/05 12:49:08;;;;;;;5.32;1.27;;;6.00;80.80;;;;;;4715673;30;20486;-79
2021/03/05 12:51:34;;;;;;;4.97;1.02;;;6.20;82.80;;;;;;4732688;30;20131;-80
2021/03/05 12:53:59;;;;;;;6.78;0.93;;;6.50;78.00;;;;;;4712928;30;20434;-77
2021/03/05 12:56:25;;;;;;;4.13;1.00;;;6.90;74.60;;;;;;4713616;30;20581;-79
2021/03/05 12:58:52;;;;;;;6.55;0.85;;;7.30;70.40;;;;;;4713108;30;20589;-82
2021/03/05 13:01:21;;;;;;;7.75;1.17;;;7.10;75.10;;;;;;4713320;30;20052;-81
2021/03/05 13:03:47;;;;;;;5.57;0.80;;;7.20;74.30;;;;;;4711622;30;20139;-80
2021/03/05 13:06:13;;;;;;;7.53;1.00;;;6.90;70.70;;;;;;4713970;30;20226;-79
2021/03/05 13:08:39;;;;;;;9.50;1.08;;;6.40;74.30;;;;;;4713775;30;20497;-79
2021/03/05 13:11:06;;;;;;;4.40;1.10;;;6.40;74.40;;;;;;4723258;30;20055;-78
2021/03/05 13:13:33;;;;;;;6.47;0.98;;;6.60;77.10;;;;;;4713201;30;20521;-78